sensor_id;sensor_type;location;lat;lon;timestamp;P1;durP1;ratioP1;P2;durP2;ratioP2
16824;SDS011;8529;48.108;-1.706;2023-02-15T00:02:01;40.07;;;22.43;;
16824;SDS011;8529;48.108;-1.706;2023-02-15T00:04:30;36.93;;;21.23;;
16824;SDS011;8529;48.108;-1.706;2023-02-15T00:07:11;34.53;;;19.93;;
16824;SDS011;8529;48.108;-1.706;2023-02-15T00:09:41;33.33;;;20.03;;
16824;SDS011;8529;48.108;-1.706;2023-02-15T00:12:11;35.90;;;21.87;;
16824;SDS011;8529;48.108;-1.706;2023-02-15T00:14:43;41.17;;;22.90;;
16824;SDS011;8529;48.108;-1.706;2023-02-15T00:17:10;39.00;;;22.70;;
16824;SDS011;8529;48.108;-1.706;2023-02-15T00:19:37;34.30;;;21.20;;
16824;SDS011;8529;48.108;-1.706;2023-02-15T00:22:05;38.00;;;21.83;;
16824;SDS011;8529;48.108;-1.706;2023-02-15T00:24:32;34.17;;;20.23;;
16824;SDS011;8529;48.108;-1.706;2023-02-15T00:26:59;35.83;;;21.30;;
16824;SDS011;8529;48.108;-1.706;2023-02-15T00:29:26;38.90;;;21.77;;
16824;SDS011;8529;48.108;-1.706;2023-02-15T00:31:54;35.57;;;21.50;;
16824;SDS011;8529;48.108;-1.706;2023-02-15T00:34:22;36.60;;;21.23;;
16824;SDS011;8529;48.108;-1.706;2023-02-15T00:36:50;37.47;;;20.97;;
16824;SDS011;8529;48.108;-1.706;2023-02-15T00:39:18;37.10;;;21.00;;
16824;SDS011;8529;48.108;-1.706;2023-02-15T00:41:45;32.60;;;19.67;;
16824;SDS011;8529;48.108;-1.706;2023-02-15T00:44:12;36.83;;;20.67;;
16824;SDS011;8529;48.108;-1.706;2023-02-15T00:46:40;36.50;;;20.50;;
16824;SDS011;8529;48.108;-1.706;2023-02-15T00:49:09;35.97;;;21.00;;
16824;SDS011;8529;48.108;-1.706;2023-02-15T00:51:37;34.13;;;19.83;;
16824;SDS011;8529;48.108;-1.706;2023-02-15T00:54:04;33.73;;;19.60;;
16824;SDS011;8529;48.108;-1.706;2023-02-15T00:56:31;31.33;;;19.63;;
16824;SDS011;8529;48.108;-1.706;2023-02-15T00:58:58;36.87;;;20.47;;
16824;SDS011;8529;48.108;-1.706;2023-02-15T01:01:25;37.33;;;21.13;;
16824;SDS011;8529;48.108;-1.706;2023-02-15T01:03:52;37.60;;;20.77;;
16824;SDS011;8529;48.108;-1.706;2023-02-15T01:06:21;38.43;;;19.87;;
16824;SDS011;8529;48.108;-1.706;2023-02-15T01:08:48;34.90;;;20.83;;
16824;SDS011;8529;48.108;-1.706;2023-02-15T01:11:15;37.03;;;20.40;;
16824;SDS011;8529;48.108;-1.706;2023-02-15T01:13:47;38.53;;;20.70;;
16824;SDS011;8529;48.108;-1.706;2023-02-15T01:16:15;33.97;;;20.47;;
16824;SDS011;8529;48.108;-1.706;2023-02-15T01:18:43;32.93;;;18.53;;
16824;SDS011;8529;48.108;-1.706;2023-02-15T01:21:11;34.77;;;19.53;;
16824;SDS011;8529;48.108;-1.706;2023-02-15T01:23:40;33.97;;;19.83;;
16824;SDS011;8529;48.108;-1.706;2023-02-15T01:26:08;32.73;;;19.33;;
16824;SDS011;8529;48.108;-1.706;2023-02-15T01:28:35;35.90;;;20.93;;
16824;SDS011;8529;48.108;-1.706;2023-02-15T01:31:06;32.03;;;19.13;;
16824;SDS011;8529;48.108;-1.706;2023-02-15T01:33:34;30.37;;;18.33;;
16824;SDS011;8529;48.108;-1.706;2023-02-15T01:36:01;31.00;;;18.03;;
16824;SDS011;8529;48.108;-1.706;2023-02-15T01:38:29;29.83;;;18.67;;
16824;SDS011;8529;48.108;-1.706;2023-02-15T01:40:57;32.40;;;18.33;;
16824;SDS011;8529;48.108;-1.706;2023-02-15T01:43:39;36.80;;;19.50;;
16824;SDS011;8529;48.108;-1.706;2023-02-15T01:46:07;30.73;;;17.80;;
16824;SDS011;8529;48.108;-1.706;2023-02-15T01:48:35;29.83;;;17.10;;
16824;SDS011;8529;48.108;-1.706;2023-02-15T01:51:08;32.37;;;18.60;;
16824;SDS011;8529;48.108;-1.706;2023-02-15T01:53:36;33.53;;;18.30;;
16824;SDS011;8529;48.108;-1.706;2023-02-15T01:56:09;31.63;;;17.93;;
16824;SDS011;8529;48.108;-1.706;2023-02-15T01:58:39;26.10;;;17.10;;
16824;SDS011;8529;48.108;-1.706;2023-02-15T02:01:07;30.00;;;16.73;;
16824;SDS011;8529;48.108;-1.706;2023-02-15T02:03:36;32.43;;;19.30;;
16824;SDS011;8529;48.108;-1.706;2023-02-15T02:06:10;26.97;;;16.77;;
16824;SDS011;8529;48.108;-1.706;2023-02-15T02:08:37;30.50;;;16.50;;
16824;SDS011;8529;48.108;-1.706;2023-02-15T02:11:10;32.63;;;18.43;;
16824;SDS011;8529;48.108;-1.706;2023-02-15T02:13:37;29.67;;;16.73;;
16824;SDS011;8529;48.108;-1.706;2023-02-15T02:16:07;28.23;;;17.70;;
16824;SDS011;8529;48.108;-1.706;2023-02-15T02:18:41;31.43;;;17.33;;
16824;SDS011;8529;48.108;-1.706;2023-02-15T02:21:25;30.97;;;17.43;;
16824;SDS011;8529;48.108;-1.706;2023-02-15T02:27:22;34.30;;;17.13;;
16824;SDS011;8529;48.108;-1.706;2023-02-15T02:33:11;30.93;;;17.57;;
16824;SDS011;8529;48.108;-1.706;2023-02-15T02:35:48;29.20;;;17.13;;
16824;SDS011;8529;48.108;-1.706;2023-02-15T02:38:24;32.37;;;18.03;;
16824;SDS011;8529;48.108;-1.706;2023-02-15T02:41:00;27.87;;;16.77;;
16824;SDS011;8529;48.108;-1.706;2023-02-15T02:43:37;32.00;;;17.83;;
16824;SDS011;8529;48.108;-1.706;2023-02-15T02:46:15;30.63;;;16.03;;
16824;SDS011;8529;48.108;-1.706;2023-02-15T02:48:47;28.07;;;16.70;;
16824;SDS011;8529;48.108;-1.706;2023-02-15T02:51:16;25.43;;;15.73;;
16824;SDS011;8529;48.108;-1.706;2023-02-15T02:53:46;29.80;;;17.63;;
16824;SDS011;8529;48.108;-1.706;2023-02-15T02:56:18;29.93;;;16.73;;
16824;SDS011;8529;48.108;-1.706;2023-02-15T02:58:48;29.70;;;17.33;;
16824;SDS011;8529;48.108;-1.706;2023-02-15T03:01:19;30.57;;;17.47;;
16824;SDS011;8529;48.108;-1.706;2023-02-15T03:03:54;28.47;;;15.97;;
16824;SDS011;8529;48.108;-1.706;2023-02-15T03:06:27;30.70;;;17.20;;
16824;SDS011;8529;48.108;-1.706;2023-02-15T03:08:59;32.43;;;17.83;;
16824;SDS011;8529;48.108;-1.706;2023-02-15T03:11:31;29.13;;;16.63;;
16824;SDS011;8529;48.108;-1.706;2023-02-15T03:13:58;28.07;;;16.23;;
16824;SDS011;8529;48.108;-1.706;2023-02-15T03:16:25;35.90;;;17.67;;
16824;SDS011;8529;48.108;-1.706;2023-02-15T03:18:55;27.83;;;16.83;;
16824;SDS011;8529;48.108;-1.706;2023-02-15T03:21:30;28.37;;;16.77;;
16824;SDS011;8529;48.108;-1.706;2023-02-15T03:24:01;28.47;;;16.63;;
16824;SDS011;8529;48.108;-1.706;2023-02-15T03:26:33;29.07;;;16.40;;
16824;SDS011;8529;48.108;-1.706;2023-02-15T03:29:02;29.07;;;16.83;;
16824;SDS011;8529;48.108;-1.706;2023-02-15T03:31:32;27.03;;;16.80;;
16824;SDS011;8529;48.108;-1.706;2023-02-15T03:34:04;28.83;;;16.63;;
16824;SDS011;8529;48.108;-1.706;2023-02-15T03:36:37;35.73;;;17.57;;
16824;SDS011;8529;48.108;-1.706;2023-02-15T03:39:13;28.23;;;17.33;;
16824;SDS011;8529;48.108;-1.706;2023-02-15T03:41:46;29.87;;;16.83;;
16824;SDS011;8529;48.108;-1.706;2023-02-15T03:44:23;27.83;;;17.13;;
16824;SDS011;8529;48.108;-1.706;2023-02-15T03:46:54;28.93;;;17.97;;
16824;SDS011;8529;48.108;-1.706;2023-02-15T03:49:28;32.47;;;17.27;;
16824;SDS011;8529;48.108;-1.706;2023-02-15T03:52:01;28.63;;;17.70;;
16824;SDS011;8529;48.108;-1.706;2023-02-15T03:54:31;28.00;;;16.67;;
16824;SDS011;8529;48.108;-1.706;2023-02-15T03:57:13;26.90;;;16.03;;
16824;SDS011;8529;48.108;-1.706;2023-02-15T03:59:59;28.63;;;17.10;;
16824;SDS011;8529;48.108;-1.706;2023-02-15T04:02:49;28.80;;;17.20;;
16824;SDS011;8529;48.108;-1.706;2023-02-15T04:05:25;26.90;;;16.73;;
16824;SDS011;8529;48.108;-1.706;2023-02-15T04:07:52;29.67;;;17.80;;
16824;SDS011;8529;48.108;-1.706;2023-02-15T04:10:19;27.77;;;16.33;;
16824;SDS011;8529;48.108;-1.706;2023-02-15T04:13:03;27.90;;;16.37;;
16824;SDS011;8529;48.108;-1.706;2023-02-15T04:15:30;26.87;;;16.40;;
16824;SDS011;8529;48.108;-1.706;2023-02-15T04:18:14;31.90;;;16.03;;
16824;SDS011;8529;48.108;-1.706;2023-02-15T04:20:44;28.60;;;16.93;;
16824;SDS011;8529;48.108;-1.706;2023-02-15T04:23:29;26.03;;;16.70;;
16824;SDS011;8529;48.108;-1.706;2023-02-15T04:26:14;33.03;;;17.60;;
16824;SDS011;8529;48.108;-1.706;2023-02-15T04:28:41;31.37;;;16.87;;
16824;SDS011;8529;48.108;-1.706;2023-02-15T04:31:08;33.17;;;17.67;;
16824;SDS011;8529;48.108;-1.706;2023-02-15T04:33:35;33.27;;;16.63;;
16824;SDS011;8529;48.108;-1.706;2023-02-15T04:36:05;32.07;;;16.53;;
16824;SDS011;8529;48.108;-1.706;2023-02-15T04:38:32;30.90;;;17.23;;
16824;SDS011;8529;48.108;-1.706;2023-02-15T04:40:59;30.90;;;16.83;;
16824;SDS011;8529;48.108;-1.706;2023-02-15T04:43:26;29.17;;;15.93;;
16824;SDS011;8529;48.108;-1.706;2023-02-15T04:45:53;27.07;;;16.63;;
16824;SDS011;8529;48.108;-1.706;2023-02-15T04:48:20;29.57;;;17.00;;
16824;SDS011;8529;48.108;-1.706;2023-02-15T04:50:47;26.43;;;15.60;;
16824;SDS011;8529;48.108;-1.706;2023-02-15T04:53:15;28.83;;;15.87;;
16824;SDS011;8529;48.108;-1.706;2023-02-15T04:55:43;27.57;;;16.53;;
16824;SDS011;8529;48.108;-1.706;2023-02-15T04:58:10;27.10;;;16.00;;
16824;SDS011;8529;48.108;-1.706;2023-02-15T05:00:37;27.47;;;15.97;;
16824;SDS011;8529;48.108;-1.706;2023-02-15T05:03:04;28.57;;;15.73;;
16824;SDS011;8529;48.108;-1.706;2023-02-15T05:05:31;28.87;;;16.57;;
16824;SDS011;8529;48.108;-1.706;2023-02-15T05:07:58;27.83;;;16.77;;
16824;SDS011;8529;48.108;-1.706;2023-02-15T05:10:26;25.03;;;15.50;;
16824;SDS011;8529;48.108;-1.706;2023-02-15T05:12:53;26.70;;;16.27;;
16824;SDS011;8529;48.108;-1.706;2023-02-15T05:15:20;28.07;;;16.50;;
16824;SDS011;8529;48.108;-1.706;2023-02-15T05:17:47;29.33;;;18.13;;
16824;SDS011;8529;48.108;-1.706;2023-02-15T05:20:14;28.20;;;16.53;;
16824;SDS011;8529;48.108;-1.706;2023-02-15T05:22:41;28.83;;;15.77;;
16824;SDS011;8529;48.108;-1.706;2023-02-15T05:25:08;25.37;;;15.77;;
16824;SDS011;8529;48.108;-1.706;2023-02-15T05:27:54;26.60;;;15.77;;
16824;SDS011;8529;48.108;-1.706;2023-02-15T05:30:39;26.93;;;15.57;;
16824;SDS011;8529;48.108;-1.706;2023-02-15T05:33:06;28.60;;;15.73;;
16824;SDS011;8529;48.108;-1.706;2023-02-15T05:35:34;28.50;;;15.57;;
16824;SDS011;8529;48.108;-1.706;2023-02-15T05:38:01;22.13;;;14.67;;
16824;SDS011;8529;48.108;-1.706;2023-02-15T05:40:28;27.90;;;16.77;;
16824;SDS011;8529;48.108;-1.706;2023-02-15T05:42:56;24.27;;;15.20;;
16824;SDS011;8529;48.108;-1.706;2023-02-15T05:45:23;23.93;;;15.13;;
16824;SDS011;8529;48.108;-1.706;2023-02-15T05:47:51;23.27;;;14.77;;
16824;SDS011;8529;48.108;-1.706;2023-02-15T05:50:37;24.40;;;14.63;;
16824;SDS011;8529;48.108;-1.706;2023-02-15T05:53:04;24.57;;;14.83;;
16824;SDS011;8529;48.108;-1.706;2023-02-15T05:55:31;27.97;;;15.50;;
16824;SDS011;8529;48.108;-1.706;2023-02-15T05:57:58;26.37;;;15.47;;
16824;SDS011;8529;48.108;-1.706;2023-02-15T06:00:25;24.30;;;15.20;;
16824;SDS011;8529;48.108;-1.706;2023-02-15T06:02:52;24.83;;;15.17;;
16824;SDS011;8529;48.108;-1.706;2023-02-15T06:05:19;22.93;;;14.10;;
16824;SDS011;8529;48.108;-1.706;2023-02-15T06:07:47;23.50;;;14.50;;
16824;SDS011;8529;48.108;-1.706;2023-02-15T06:10:14;26.93;;;14.93;;
16824;SDS011;8529;48.108;-1.706;2023-02-15T06:12:41;27.90;;;14.77;;
16824;SDS011;8529;48.108;-1.706;2023-02-15T06:15:09;26.83;;;14.73;;
16824;SDS011;8529;48.108;-1.706;2023-02-15T06:17:36;25.87;;;14.77;;
16824;SDS011;8529;48.108;-1.706;2023-02-15T06:20:04;26.47;;;15.20;;
16824;SDS011;8529;48.108;-1.706;2023-02-15T06:22:32;25.97;;;15.67;;
16824;SDS011;8529;48.108;-1.706;2023-02-15T06:25:01;27.07;;;14.57;;
16824;SDS011;8529;48.108;-1.706;2023-02-15T06:27:28;22.73;;;13.90;;
16824;SDS011;8529;48.108;-1.706;2023-02-15T06:29:55;25.63;;;14.67;;
16824;SDS011;8529;48.108;-1.706;2023-02-15T06:32:22;22.67;;;13.80;;
16824;SDS011;8529;48.108;-1.706;2023-02-15T06:34:49;28.20;;;14.77;;
16824;SDS011;8529;48.108;-1.706;2023-02-15T06:37:16;27.83;;;15.53;;
16824;SDS011;8529;48.108;-1.706;2023-02-15T06:39:43;27.73;;;16.13;;
16824;SDS011;8529;48.108;-1.706;2023-02-15T06:42:11;27.27;;;14.70;;
16824;SDS011;8529;48.108;-1.706;2023-02-15T06:44:38;27.70;;;15.23;;
16824;SDS011;8529;48.108;-1.706;2023-02-15T06:47:05;27.47;;;15.73;;
16824;SDS011;8529;48.108;-1.706;2023-02-15T06:49:32;26.50;;;15.10;;
16824;SDS011;8529;48.108;-1.706;2023-02-15T06:51:59;28.50;;;15.10;;
16824;SDS011;8529;48.108;-1.706;2023-02-15T06:54:26;25.10;;;15.23;;
16824;SDS011;8529;48.108;-1.706;2023-02-15T06:56:53;26.67;;;15.13;;
16824;SDS011;8529;48.108;-1.706;2023-02-15T06:59:22;27.03;;;14.57;;
16824;SDS011;8529;48.108;-1.706;2023-02-15T07:01:49;24.23;;;13.47;;
16824;SDS011;8529;48.108;-1.706;2023-02-15T07:04:16;25.27;;;14.20;;
16824;SDS011;8529;48.108;-1.706;2023-02-15T07:06:43;24.57;;;14.70;;
16824;SDS011;8529;48.108;-1.706;2023-02-15T07:09:10;26.83;;;15.23;;
16824;SDS011;8529;48.108;-1.706;2023-02-15T07:11:38;27.50;;;14.60;;
16824;SDS011;8529;48.108;-1.706;2023-02-15T07:14:24;28.17;;;15.13;;
16824;SDS011;8529;48.108;-1.706;2023-02-15T07:16:51;25.87;;;16.37;;
16824;SDS011;8529;48.108;-1.706;2023-02-15T07:19:18;26.77;;;14.10;;
16824;SDS011;8529;48.108;-1.706;2023-02-15T07:21:45;28.67;;;15.97;;
16824;SDS011;8529;48.108;-1.706;2023-02-15T07:24:12;27.67;;;15.50;;
16824;SDS011;8529;48.108;-1.706;2023-02-15T07:26:39;27.13;;;15.60;;
16824;SDS011;8529;48.108;-1.706;2023-02-15T07:29:06;26.70;;;15.00;;
16824;SDS011;8529;48.108;-1.706;2023-02-15T07:31:35;27.77;;;16.27;;
16824;SDS011;8529;48.108;-1.706;2023-02-15T07:34:02;26.57;;;14.40;;
16824;SDS011;8529;48.108;-1.706;2023-02-15T07:36:29;25.47;;;14.43;;
16824;SDS011;8529;48.108;-1.706;2023-02-15T07:38:55;28.23;;;15.87;;
16824;SDS011;8529;48.108;-1.706;2023-02-15T07:41:22;28.93;;;16.03;;
16824;SDS011;8529;48.108;-1.706;2023-02-15T07:43:49;31.37;;;16.57;;
16824;SDS011;8529;48.108;-1.706;2023-02-15T07:46:16;28.43;;;16.17;;
16824;SDS011;8529;48.108;-1.706;2023-02-15T07:48:47;30.13;;;15.10;;
16824;SDS011;8529;48.108;-1.706;2023-02-15T07:51:14;25.57;;;14.77;;
16824;SDS011;8529;48.108;-1.706;2023-02-15T07:53:41;26.60;;;14.87;;
16824;SDS011;8529;48.108;-1.706;2023-02-15T07:56:09;24.83;;;13.93;;
16824;SDS011;8529;48.108;-1.706;2023-02-15T07:58:37;27.07;;;15.73;;
16824;SDS011;8529;48.108;-1.706;2023-02-15T08:01:17;25.47;;;15.40;;
16824;SDS011;8529;48.108;-1.706;2023-02-15T08:03:45;30.17;;;15.47;;
16824;SDS011;8529;48.108;-1.706;2023-02-15T08:06:13;23.70;;;14.40;;
16824;SDS011;8529;48.108;-1.706;2023-02-15T08:08:40;26.97;;;14.97;;
16824;SDS011;8529;48.108;-1.706;2023-02-15T08:11:13;27.20;;;15.73;;
16824;SDS011;8529;48.108;-1.706;2023-02-15T08:13:54;24.73;;;14.30;;
16824;SDS011;8529;48.108;-1.706;2023-02-15T08:16:25;30.07;;;16.40;;
16824;SDS011;8529;48.108;-1.706;2023-02-15T08:18:55;28.90;;;16.77;;
16824;SDS011;8529;48.108;-1.706;2023-02-15T08:21:25;26.97;;;15.50;;
16824;SDS011;8529;48.108;-1.706;2023-02-15T08:23:53;24.23;;;15.63;;
16824;SDS011;8529;48.108;-1.706;2023-02-15T08:26:20;28.47;;;15.77;;
16824;SDS011;8529;48.108;-1.706;2023-02-15T08:28:48;28.53;;;16.47;;
16824;SDS011;8529;48.108;-1.706;2023-02-15T08:31:15;25.67;;;15.17;;
16824;SDS011;8529;48.108;-1.706;2023-02-15T08:33:43;28.43;;;15.23;;
16824;SDS011;8529;48.108;-1.706;2023-02-15T08:36:13;23.70;;;15.20;;
16824;SDS011;8529;48.108;-1.706;2023-02-15T08:38:41;26.57;;;14.93;;
16824;SDS011;8529;48.108;-1.706;2023-02-15T08:41:12;27.00;;;15.40;;
16824;SDS011;8529;48.108;-1.706;2023-02-15T08:43:41;27.20;;;14.13;;
16824;SDS011;8529;48.108;-1.706;2023-02-15T08:46:09;27.73;;;14.93;;
16824;SDS011;8529;48.108;-1.706;2023-02-15T08:48:37;26.87;;;15.03;;
16824;SDS011;8529;48.108;-1.706;2023-02-15T08:51:05;28.30;;;15.97;;
16824;SDS011;8529;48.108;-1.706;2023-02-15T08:53:37;26.70;;;14.60;;
16824;SDS011;8529;48.108;-1.706;2023-02-15T08:56:05;28.27;;;14.23;;
16824;SDS011;8529;48.108;-1.706;2023-02-15T08:58:33;26.23;;;15.10;;
16824;SDS011;8529;48.108;-1.706;2023-02-15T09:01:00;25.13;;;13.57;;
16824;SDS011;8529;48.108;-1.706;2023-02-15T09:03:28;24.23;;;13.17;;
16824;SDS011;8529;48.108;-1.706;2023-02-15T09:05:58;27.40;;;15.30;;
16824;SDS011;8529;48.108;-1.706;2023-02-15T09:08:26;28.50;;;15.73;;
16824;SDS011;8529;48.108;-1.706;2023-02-15T09:11:03;31.83;;;17.00;;
16824;SDS011;8529;48.108;-1.706;2023-02-15T09:13:31;30.93;;;17.47;;
16824;SDS011;8529;48.108;-1.706;2023-02-15T09:15:58;29.23;;;17.40;;
16824;SDS011;8529;48.108;-1.706;2023-02-15T09:18:26;29.87;;;17.17;;
16824;SDS011;8529;48.108;-1.706;2023-02-15T09:20:53;28.97;;;16.93;;
16824;SDS011;8529;48.108;-1.706;2023-02-15T09:23:21;30.60;;;17.40;;
16824;SDS011;8529;48.108;-1.706;2023-02-15T09:25:48;29.17;;;17.23;;
16824;SDS011;8529;48.108;-1.706;2023-02-15T09:28:16;25.47;;;16.00;;
16824;SDS011;8529;48.108;-1.706;2023-02-15T09:30:43;27.93;;;15.57;;
16824;SDS011;8529;48.108;-1.706;2023-02-15T09:33:10;26.23;;;15.43;;
16824;SDS011;8529;48.108;-1.706;2023-02-15T09:35:37;26.70;;;15.77;;
16824;SDS011;8529;48.108;-1.706;2023-02-15T09:38:04;30.37;;;15.20;;
16824;SDS011;8529;48.108;-1.706;2023-02-15T09:40:32;26.33;;;16.07;;
16824;SDS011;8529;48.108;-1.706;2023-02-15T09:43:14;27.67;;;15.73;;
16824;SDS011;8529;48.108;-1.706;2023-02-15T09:46:01;25.27;;;15.33;;
16824;SDS011;8529;48.108;-1.706;2023-02-15T09:48:40;23.47;;;14.33;;
16824;SDS011;8529;48.108;-1.706;2023-02-15T09:54:09;21.37;;;13.83;;
16824;SDS011;8529;48.108;-1.706;2023-02-15T09:56:46;21.97;;;14.27;;
16824;SDS011;8529;48.108;-1.706;2023-02-15T09:59:19;25.20;;;13.33;;
16824;SDS011;8529;48.108;-1.706;2023-02-15T10:01:56;21.50;;;13.80;;
16824;SDS011;8529;48.108;-1.706;2023-02-15T10:04:35;21.07;;;13.70;;
16824;SDS011;8529;48.108;-1.706;2023-02-15T10:07:29;24.57;;;14.37;;
16824;SDS011;8529;48.108;-1.706;2023-02-15T10:10:10;24.60;;;14.90;;
16824;SDS011;8529;48.108;-1.706;2023-02-15T10:12:56;24.93;;;15.80;;
16824;SDS011;8529;48.108;-1.706;2023-02-15T10:15:38;24.63;;;15.40;;
16824;SDS011;8529;48.108;-1.706;2023-02-15T10:18:20;25.27;;;15.77;;
16824;SDS011;8529;48.108;-1.706;2023-02-15T10:20:55;24.30;;;15.40;;
16824;SDS011;8529;48.108;-1.706;2023-02-15T10:23:29;31.27;;;16.07;;
16824;SDS011;8529;48.108;-1.706;2023-02-15T10:26:09;23.77;;;15.90;;
16824;SDS011;8529;48.108;-1.706;2023-02-15T10:28:43;28.43;;;15.83;;
16824;SDS011;8529;48.108;-1.706;2023-02-15T10:31:19;28.23;;;17.40;;
16824;SDS011;8529;48.108;-1.706;2023-02-15T10:33:56;26.53;;;13.97;;
16824;SDS011;8529;48.108;-1.706;2023-02-15T10:36:46;25.33;;;15.90;;
16824;SDS011;8529;48.108;-1.706;2023-02-15T10:39:31;25.07;;;15.83;;
16824;SDS011;8529;48.108;-1.706;2023-02-15T10:42:07;26.07;;;14.70;;
16824;SDS011;8529;48.108;-1.706;2023-02-15T10:44:44;26.03;;;15.10;;
16824;SDS011;8529;48.108;-1.706;2023-02-15T10:47:30;30.80;;;20.03;;
16824;SDS011;8529;48.108;-1.706;2023-02-15T10:50:20;25.90;;;16.63;;
16824;SDS011;8529;48.108;-1.706;2023-02-15T10:53:09;27.47;;;15.67;;
16824;SDS011;8529;48.108;-1.706;2023-02-15T10:55:47;27.37;;;16.70;;
16824;SDS011;8529;48.108;-1.706;2023-02-15T10:58:24;22.33;;;14.60;;
16824;SDS011;8529;48.108;-1.706;2023-02-15T11:01:06;25.73;;;15.97;;
16824;SDS011;8529;48.108;-1.706;2023-02-15T11:03:45;24.13;;;16.40;;
16824;SDS011;8529;48.108;-1.706;2023-02-15T11:06:30;24.57;;;14.50;;
16824;SDS011;8529;48.108;-1.706;2023-02-15T11:09:00;22.50;;;13.93;;
16824;SDS011;8529;48.108;-1.706;2023-02-15T11:11:29;20.27;;;13.63;;
16824;SDS011;8529;48.108;-1.706;2023-02-15T11:14:01;25.50;;;15.53;;
16824;SDS011;8529;48.108;-1.706;2023-02-15T11:16:32;29.50;;;16.17;;
16824;SDS011;8529;48.108;-1.706;2023-02-15T11:19:05;27.53;;;15.67;;
16824;SDS011;8529;48.108;-1.706;2023-02-15T11:21:36;22.63;;;15.93;;
16824;SDS011;8529;48.108;-1.706;2023-02-15T11:24:08;26.57;;;14.80;;
16824;SDS011;8529;48.108;-1.706;2023-02-15T11:26:38;22.57;;;13.93;;
16824;SDS011;8529;48.108;-1.706;2023-02-15T11:29:10;22.40;;;13.80;;
16824;SDS011;8529;48.108;-1.706;2023-02-15T11:31:44;21.90;;;13.50;;
16824;SDS011;8529;48.108;-1.706;2023-02-15T11:34:17;24.87;;;14.77;;
16824;SDS011;8529;48.108;-1.706;2023-02-15T11:36:49;28.20;;;14.27;;
16824;SDS011;8529;48.108;-1.706;2023-02-15T11:39:18;23.30;;;13.43;;
16824;SDS011;8529;48.108;-1.706;2023-02-15T11:41:49;22.17;;;14.77;;
16824;SDS011;8529;48.108;-1.706;2023-02-15T11:44:19;25.83;;;15.00;;
16824;SDS011;8529;48.108;-1.706;2023-02-15T11:46:49;24.07;;;14.90;;
16824;SDS011;8529;48.108;-1.706;2023-02-15T11:49:22;22.63;;;13.70;;
16824;SDS011;8529;48.108;-1.706;2023-02-15T11:51:52;21.07;;;14.10;;
16824;SDS011;8529;48.108;-1.706;2023-02-15T11:54:21;23.63;;;14.67;;
16824;SDS011;8529;48.108;-1.706;2023-02-15T11:56:52;25.10;;;14.50;;
16824;SDS011;8529;48.108;-1.706;2023-02-15T11:59:24;23.50;;;14.00;;
16824;SDS011;8529;48.108;-1.706;2023-02-15T12:01:56;25.20;;;14.48;;
16824;SDS011;8529;48.108;-1.706;2023-02-15T12:04:25;26.27;;;14.85;;
16824;SDS011;8529;48.108;-1.706;2023-02-15T12:06:58;23.88;;;14.90;;
16824;SDS011;8529;48.108;-1.706;2023-02-15T12:09:30;24.02;;;14.02;;
16824;SDS011;8529;48.108;-1.706;2023-02-15T12:12:20;24.10;;;15.17;;
16824;SDS011;8529;48.108;-1.706;2023-02-15T12:14:50;23.27;;;13.82;;
16824;SDS011;8529;48.108;-1.706;2023-02-15T12:17:18;23.35;;;15.05;;
16824;SDS011;8529;48.108;-1.706;2023-02-15T12:19:50;23.10;;;15.15;;
16824;SDS011;8529;48.108;-1.706;2023-02-15T12:22:20;22.65;;;14.15;;
16824;SDS011;8529;48.108;-1.706;2023-02-15T12:24:50;23.27;;;14.30;;
16824;SDS011;8529;48.108;-1.706;2023-02-15T12:27:20;26.98;;;16.25;;
16824;SDS011;8529;48.108;-1.706;2023-02-15T12:29:50;25.98;;;15.18;;
16824;SDS011;8529;48.108;-1.706;2023-02-15T12:32:22;24.20;;;14.18;;
16824;SDS011;8529;48.108;-1.706;2023-02-15T12:34:53;26.00;;;15.45;;
16824;SDS011;8529;48.108;-1.706;2023-02-15T12:37:23;25.77;;;15.38;;
16824;SDS011;8529;48.108;-1.706;2023-02-15T12:39:55;22.60;;;14.80;;
16824;SDS011;8529;48.108;-1.706;2023-02-15T12:42:23;24.52;;;14.73;;
16824;SDS011;8529;48.108;-1.706;2023-02-15T12:44:56;26.38;;;14.82;;
16824;SDS011;8529;48.108;-1.706;2023-02-15T12:47:25;26.73;;;15.93;;
16824;SDS011;8529;48.108;-1.706;2023-02-15T12:50:08;23.92;;;14.43;;
16824;SDS011;8529;48.108;-1.706;2023-02-15T12:52:43;24.40;;;14.27;;
16824;SDS011;8529;48.108;-1.706;2023-02-15T12:55:17;22.27;;;13.63;;
16824;SDS011;8529;48.108;-1.706;2023-02-15T12:57:46;22.65;;;13.27;;
16824;SDS011;8529;48.108;-1.706;2023-02-15T13:03:00;25.52;;;14.77;;
16824;SDS011;8529;48.108;-1.706;2023-02-15T13:05:32;20.05;;;13.80;;
16824;SDS011;8529;48.108;-1.706;2023-02-15T13:08:04;21.88;;;14.10;;
16824;SDS011;8529;48.108;-1.706;2023-02-15T13:10:39;23.13;;;14.00;;
16824;SDS011;8529;48.108;-1.706;2023-02-15T13:13:09;25.08;;;13.32;;
16824;SDS011;8529;48.108;-1.706;2023-02-15T13:15:38;20.70;;;13.77;;
16824;SDS011;8529;48.108;-1.706;2023-02-15T13:18:10;22.73;;;14.02;;
16824;SDS011;8529;48.108;-1.706;2023-02-15T13:20:43;21.30;;;14.07;;
16824;SDS011;8529;48.108;-1.706;2023-02-15T13:23:16;20.70;;;13.75;;
16824;SDS011;8529;48.108;-1.706;2023-02-15T13:25:52;23.20;;;13.40;;
16824;SDS011;8529;48.108;-1.706;2023-02-15T13:28:22;22.58;;;14.43;;
16824;SDS011;8529;48.108;-1.706;2023-02-15T13:30:54;23.60;;;14.38;;
16824;SDS011;8529;48.108;-1.706;2023-02-15T13:33:23;20.20;;;13.48;;
16824;SDS011;8529;48.108;-1.706;2023-02-15T13:35:59;23.98;;;14.48;;
16824;SDS011;8529;48.108;-1.706;2023-02-15T13:41:22;20.55;;;14.02;;
16824;SDS011;8529;48.108;-1.706;2023-02-15T13:43:55;21.63;;;14.27;;
16824;SDS011;8529;48.108;-1.706;2023-02-15T13:46:39;22.48;;;14.57;;
16824;SDS011;8529;48.108;-1.706;2023-02-15T13:49:28;20.13;;;13.82;;
16824;SDS011;8529;48.108;-1.706;2023-02-15T13:52:08;23.80;;;13.38;;
16824;SDS011;8529;48.108;-1.706;2023-02-15T13:54:53;19.70;;;12.82;;
16824;SDS011;8529;48.108;-1.706;2023-02-15T13:57:51;24.67;;;13.98;;
16824;SDS011;8529;48.108;-1.706;2023-02-15T14:00:30;22.80;;;14.40;;
16824;SDS011;8529;48.108;-1.706;2023-02-15T14:06:15;21.70;;;13.88;;
16824;SDS011;8529;48.108;-1.706;2023-02-15T14:09:01;23.67;;;13.32;;
16824;SDS011;8529;48.108;-1.706;2023-02-15T14:11:42;19.85;;;12.52;;
16824;SDS011;8529;48.108;-1.706;2023-02-15T14:17:20;20.88;;;13.45;;
16824;SDS011;8529;48.108;-1.706;2023-02-15T14:19:56;23.20;;;13.82;;
16824;SDS011;8529;48.108;-1.706;2023-02-15T14:22:29;18.77;;;12.48;;
16824;SDS011;8529;48.108;-1.706;2023-02-15T14:25:05;20.55;;;12.70;;
16824;SDS011;8529;48.108;-1.706;2023-02-15T14:27:45;19.92;;;12.98;;
16824;SDS011;8529;48.108;-1.706;2023-02-15T14:30:21;20.30;;;12.10;;
16824;SDS011;8529;48.108;-1.706;2023-02-15T14:32:52;20.63;;;12.48;;
16824;SDS011;8529;48.108;-1.706;2023-02-15T14:35:24;20.77;;;12.55;;
16824;SDS011;8529;48.108;-1.706;2023-02-15T14:37:54;20.00;;;12.48;;
16824;SDS011;8529;48.108;-1.706;2023-02-15T14:40:39;18.60;;;11.70;;
16824;SDS011;8529;48.108;-1.706;2023-02-15T14:43:33;23.80;;;12.88;;
16824;SDS011;8529;48.108;-1.706;2023-02-15T14:46:14;19.77;;;12.70;;
16824;SDS011;8529;48.108;-1.706;2023-02-15T14:48:47;20.67;;;13.20;;
16824;SDS011;8529;48.108;-1.706;2023-02-15T14:57:22;20.00;;;12.00;;
16824;SDS011;8529;48.108;-1.706;2023-02-15T14:59:56;16.38;;;11.88;;
16824;SDS011;8529;48.108;-1.706;2023-02-15T15:02:25;24.13;;;11.93;;
16824;SDS011;8529;48.108;-1.706;2023-02-15T15:04:56;22.00;;;12.43;;
16824;SDS011;8529;48.108;-1.706;2023-02-15T15:07:28;19.35;;;12.07;;
16824;SDS011;8529;48.108;-1.706;2023-02-15T15:10:05;16.88;;;11.02;;
16824;SDS011;8529;48.108;-1.706;2023-02-15T15:12:54;18.42;;;11.70;;
16824;SDS011;8529;48.108;-1.706;2023-02-15T15:15:32;19.55;;;12.60;;